Roosevelt, New York
Current Conditions -  °F | °C
As of 4:53 PM on Thursday 23 Oct 2014 (Local Time) from KFRG Reporting Station
Overcast Overcast  
Wind Chill: 53°   Ceiling: 2300
Heat Index: 53°   Visibility: 10mi
Dew Point: 45°   Wind: 10mph
Humidity: 74%   Direction: 340°NNW
Pressure: 29.67"   Gusts: 22mph
Location:  40.68°N, 73.59°W
Report Text: KFRG 232053Z 34009G19KT 10SM OVC023 12/07 A2967 RMK AO2 SLP048 T01170072 53005
Loading
Personal Weather Stations






























Interactive Weather Map
Tropical Storm Tracking
New forecast layout! Learn more

10-Day Weather Forecast

Advertisements
Track Severe Weather on mobile